»·PEaware :: N74KW L88-L90

N74KW :: L88-L90

FLIGHT INFORMATION

Flight Status: Arrived
Operator: Privately registered:
United States
More flights under this callsign
Pilot: Charles C. (26995)
Aircraft: MCDONNELL-DOUGLAS SKYTRAIN C-47
(DC3)
More flights by this aircraft type
Origin: L88 New Cuyama
United States
Destination: L90 Ocotillo
United States
More flights between these airports :: More routes between these airports
Route: +VTU V208 JLI
File this flight plan on PilotEdge
Remarks:
Altitude:
(Current/Filed)
9,000ft
Speed:
(Current/Filed)
150kts
Departed: 19-Aug-20 12:49 PM
Arrived: 19-Aug-20 02:02 PM
Distance/Time
Traveled:
207nm/1:13
Distance/Time
To Go:
Arrived

Flight Plot

Page will automatically refresh every two minutes.

Flight plan parsing failed; only flown route is shown


Map Options




Map Legend


Flown Route
Filed Route
Departure Airport
Arrival Airport
Navaid (VOR, NDB)
Fix

Horizontal Profiles

Position Reports

Time Latitude Longitude Heading Altitude Ground
Speed
19-Aug-20 12:47 34.402182 -119.553150 122 7421ft 163kts
19-Aug-20 12:48 34.378034 -119.508523 122 7943ft 151kts
19-Aug-20 12:49 34.355302 -119.466709 122 8499ft 148kts
19-Aug-20 12:50 34.332736 -119.425276 122 9016ft 147kts
19-Aug-20 12:51 34.307953 -119.379822 122 8934ft 177kts
19-Aug-20 12:52 34.280668 -119.329881 123 8939ft 182kts
19-Aug-20 12:53 34.253520 -119.280265 123 8989ft 176kts
19-Aug-20 12:54 34.226335 -119.230639 123 8989ft 176kts
19-Aug-20 12:55 34.199209 -119.181191 123 8990ft 176kts
19-Aug-20 12:56 34.172105 -119.131852 123 8991ft 176kts
19-Aug-20 12:57 34.144867 -119.082336 123 8993ft 176kts
19-Aug-20 12:58 34.111850 -119.041628 167 8999ft 176kts
19-Aug-20 12:59 34.063624 -119.032915 174 8998ft 174kts
19-Aug-20 13:00 34.015467 -119.027294 175 8998ft 173kts
19-Aug-20 13:01 33.967492 -119.022135 175 8998ft 173kts
19-Aug-20 13:02 33.919415 -119.017038 175 8998ft 173kts
19-Aug-20 13:03 33.871176 -119.011938 175 8997ft 173kts
19-Aug-20 13:04 33.823295 -119.006885 175 8996ft 173kts
19-Aug-20 13:05 33.781829 -118.986070 126 8999ft 172kts
19-Aug-20 13:06 33.751877 -118.940543 129 8995ft 174kts
19-Aug-20 13:08 33.721096 -118.895787 129 9006ft 174kts
19-Aug-20 13:09 33.689683 -118.850456 130 8955ft 176kts
19-Aug-20 13:10 33.658461 -118.805504 130 8978ft 174kts
19-Aug-20 13:11 33.627388 -118.760827 130 8998ft 174kts
19-Aug-20 13:12 33.596216 -118.716080 130 9016ft 174kts
19-Aug-20 13:13 33.565115 -118.671469 130 9017ft 175kts
19-Aug-20 13:14 33.533819 -118.626638 130 9017ft 175kts
19-Aug-20 13:15 33.502593 -118.581959 130 9017ft 175kts
19-Aug-20 13:16 33.471317 -118.537269 130 9015ft 175kts
19-Aug-20 13:17 33.439874 -118.492393 130 9016ft 175kts
19-Aug-20 13:18 33.408507 -118.447683 130 9017ft 175kts
19-Aug-20 13:19 33.383013 -118.399755 94 9021ft 175kts
19-Aug-20 13:20 33.378474 -118.341847 95 9007ft 176kts
19-Aug-20 13:21 33.373193 -118.283606 95 9000ft 176kts
19-Aug-20 13:22 33.367758 -118.225264 96 8987ft 176kts
19-Aug-20 13:23 33.362282 -118.166961 96 8976ft 176kts
19-Aug-20 13:24 33.356749 -118.108393 96 8966ft 177kts
19-Aug-20 13:25 33.351189 -118.049827 96 8957ft 177kts
19-Aug-20 13:25 33.346547 -118.001149 96 8948ft 177kts
19-Aug-20 13:26 33.340919 -117.942409 96 8935ft 178kts
19-Aug-20 13:28 33.334300 -117.873724 96 8918ft 178kts
19-Aug-20 13:28 33.329527 -117.824420 96 8907ft 178kts
19-Aug-20 13:29 33.323801 -117.765560 96 8907ft 178kts
19-Aug-20 13:30 33.318057 -117.706793 96 8907ft 178kts
19-Aug-20 13:31 33.312273 -117.647918 96 8907ft 178kts
19-Aug-20 13:32 33.306481 -117.589242 96 8906ft 178kts
19-Aug-20 13:33 33.300644 -117.530432 96 8907ft 178kts
19-Aug-20 13:34 33.294781 -117.471609 96 8908ft 178kts
19-Aug-20 13:35 33.288883 -117.412731 96 8907ft 178kts
19-Aug-20 13:36 33.281096 -117.354286 100 8908ft 178kts
19-Aug-20 13:37 33.271597 -117.296198 101 8911ft 177kts
19-Aug-20 13:38 33.262114 -117.238476 101 8916ft 176kts
19-Aug-20 13:39 33.252637 -117.180947 100 8920ft 176kts
19-Aug-20 13:40 33.243145 -117.123511 100 8924ft 176kts
19-Aug-20 13:41 33.233602 -117.066032 100 8932ft 175kts
19-Aug-20 13:42 33.224132 -117.009024 99 8941ft 174kts
19-Aug-20 13:43 33.214707 -116.952441 99 8949ft 172kts
19-Aug-20 13:44 33.205374 -116.896527 99 8957ft 171kts
19-Aug-20 13:45 33.196019 -116.840931 99 8962ft 170kts
19-Aug-20 13:46 33.186714 -116.785569 99 8963ft 170kts
19-Aug-20 13:47 33.177396 -116.730287 99 8960ft 169kts
19-Aug-20 13:48 33.165375 -116.675898 103 8963ft 169kts
19-Aug-20 13:49 33.153186 -116.621480 101 8960ft 169kts
19-Aug-20 13:50 33.147013 -116.566016 87 8957ft 169kts
19-Aug-20 13:51 33.148148 -116.509760 87 8951ft 169kts
19-Aug-20 13:52 33.149312 -116.451441 87 8360ft 190kts
19-Aug-20 13:53 33.150611 -116.384588 87 6806ft 207kts
19-Aug-20 13:54 33.153599 -116.318502 61 5699ft 193kts
19-Aug-20 13:55 33.185273 -116.335630 229 3871ft 208kts
19-Aug-20 13:56 33.161922 -116.309749 84 2578ft 193kts
19-Aug-20 13:57 33.164769 -116.251169 115 1457ft 173kts
19-Aug-20 13:58 33.159173 -116.199345 100 847ft 138kts
19-Aug-20 13:59 33.153141 -116.164174 89 530ft 85kts
19-Aug-20 14:00 33.147813 -116.137520 109 233ft 82kts
19-Aug-20 14:01 33.145384 -116.127969 280 168ft 18kts
19-Aug-20 14:02 33.146104 -116.129674 161 168ft 0kts
19-Aug-20 14:03 33.146104 -116.129674 161 168ft 0kts
19-Aug-20 14:04 33.146104 -116.129674 161 168ft 0kts
19-Aug-20 14:05 33.146104 -116.129674 161 168ft 0kts

Navigation Log

Ident Type
Flight plan parsing failed, navigation log unavailable